createdAt,value
2023-04-25T00:00:05.598Z,12.02575684
2023-04-25T00:01:06.693Z,12.03582764
2023-04-25T00:02:09.034Z,12.00561523
2023-04-25T00:03:10.755Z,12.00561523
2023-04-25T00:04:11.686Z,12.00561523
2023-04-25T00:05:45.232Z,12.02575684
2023-04-25T00:06:46.104Z,11.99554443
2023-04-25T00:07:47.065Z,11.93511963
2023-04-25T00:08:48.110Z,11.85455322
2023-04-25T00:09:49.956Z,11.87469482
2023-04-25T00:10:51.634Z,11.92504883
2023-04-25T00:11:53.604Z,11.95526123
2023-04-25T00:12:54.480Z,11.93511963
2023-04-25T00:13:55.850Z,11.88476563
2023-04-25T00:14:57.426Z,11.85455322
2023-04-25T00:15:59.573Z,11.82434082
2023-04-25T00:17:00.452Z,11.85455322
2023-04-25T00:18:01.420Z,11.87469482
2023-04-25T00:19:02.993Z,11.88476563
2023-04-25T00:20:04.503Z,11.88476563
2023-04-25T00:21:05.311Z,11.92504883
2023-04-25T00:22:06.357Z,11.99554443
2023-04-25T00:23:07.272Z,12.00561523
2023-04-25T00:24:08.252Z,12.04589844
2023-04-25T00:25:10.058Z,12.07611084
2023-04-25T00:26:11.527Z,12.04589844
2023-04-25T00:27:12.929Z,12.07611084
2023-04-25T00:28:44.996Z,12.11639404
2023-04-25T00:29:45.790Z,12.14660645
2023-04-25T00:30:47.385Z,12.14660645
2023-04-25T00:31:48.184Z,12.14660645
2023-04-25T00:32:49.030Z,12.15667725
2023-04-25T00:33:50.847Z,12.17681885
2023-04-25T00:34:51.486Z,12.20703125
2023-04-25T00:35:52.928Z,12.21710205
2023-04-25T00:36:54.439Z,12.17681885
2023-04-25T00:37:55.353Z,12.17681885
2023-04-25T00:38:56.953Z,12.18688965
2023-04-25T00:39:58.561Z,12.20703125
2023-04-25T00:41:00.029Z,12.20703125
2023-04-25T00:42:00.941Z,12.20703125
2023-04-25T00:43:01.983Z,12.20703125
2023-04-25T00:44:03.554Z,12.20703125
2023-04-25T00:45:04.488Z,12.18688965
2023-04-25T00:46:05.915Z,12.18688965
2023-04-25T00:47:07.607Z,12.18688965
2023-04-25T00:48:09.057Z,12.17681885
2023-04-25T00:49:10.497Z,12.17681885
2023-04-25T00:50:12.074Z,12.04589844
2023-04-25T00:51:43.398Z,12.04589844
2023-04-25T00:52:44.150Z,12.03582764
2023-04-25T00:53:44.976Z,12.04589844
2023-04-25T00:54:46.639Z,12.04589844
2023-04-25T00:55:48.002Z,12.02575684
2023-04-25T00:56:49.575Z,12.03582764
2023-04-25T00:57:50.393Z,12.06604004
2023-04-25T00:58:51.932Z,12.06604004
2023-04-25T00:59:53.419Z,12.06604004
2023-04-25T01:00:54.274Z,12.06604004
2023-04-25T01:01:56.126Z,12.07611084
2023-04-25T01:02:57.113Z,12.10632324
2023-04-25T01:03:57.897Z,12.10632324
2023-04-25T01:04:59.540Z,12.10632324
2023-04-25T01:06:01.019Z,12.10632324
2023-04-25T01:07:02.651Z,12.11639404
2023-04-25T01:08:03.550Z,12.12646484
2023-04-25T01:09:04.484Z,12.15667725
2023-04-25T01:10:07.028Z,12.18688965
2023-04-25T01:11:08.521Z,12.22717285
2023-04-25T01:12:09.346Z,12.28759766
2023-04-25T01:13:10.191Z,12.28759766
2023-04-25T01:14:12.027Z,12.25738525
2023-04-25T01:15:44.130Z,12.25738525
2023-04-25T01:16:46.086Z,12.22717285
2023-04-25T01:17:47.812Z,12.14660645
2023-04-25T01:18:49.562Z,12.12646484
2023-04-25T01:19:50.387Z,12.04589844
2023-04-25T01:20:52.063Z,12.06604004
2023-04-25T01:21:52.861Z,12.06604004
2023-04-25T01:22:54.581Z,12.07611084
2023-04-25T01:23:55.446Z,12.03582764
2023-04-25T01:24:57.091Z,12.02575684
2023-04-25T01:25:58.515Z,11.97540283
2023-04-25T01:27:00.064Z,11.95526123
2023-04-25T01:28:00.928Z,11.95526123
2023-04-25T01:29:02.418Z,11.92504883
2023-04-25T01:30:04.092Z,11.88476563
2023-04-25T01:31:04.848Z,11.93511963
2023-04-25T01:32:05.698Z,11.90490723
2023-04-25T01:33:06.549Z,11.96533203
2023-04-25T01:34:07.396Z,12.00561523
2023-04-25T01:35:09.053Z,12.04589844
2023-04-25T01:36:10.537Z,12.07611084
2023-04-25T01:37:11.998Z,12.10632324
2023-04-25T01:38:43.353Z,12.10632324
2023-04-25T01:39:45.556Z,12.11639404
2023-04-25T01:40:46.573Z,12.06604004
2023-04-25T01:41:47.913Z,12.07611084
2023-04-25T01:42:48.773Z,12.12646484
2023-04-25T01:43:49.871Z,12.15667725
2023-04-25T01:44:51.004Z,12.15667725
2023-04-25T01:45:52.712Z,12.12646484
2023-04-25T01:46:54.034Z,12.15667725
2023-04-25T01:47:54.806Z,12.15667725
2023-04-25T01:48:56.553Z,12.15667725
2023-04-25T01:49:57.366Z,12.18688965
2023-04-25T01:50:58.990Z,12.17681885
2023-04-25T01:51:59.723Z,12.21710205
2023-04-25T01:53:00.612Z,12.21710205
2023-04-25T01:54:01.505Z,12.20703125
2023-04-25T01:55:03.027Z,12.18688965
2023-04-25T01:56:04.488Z,12.18688965
2023-04-25T01:57:06.033Z,12.20703125
2023-04-25T01:58:06.846Z,12.18688965
2023-04-25T01:59:07.864Z,12.18688965
2023-04-25T02:00:09.423Z,12.17681885
2023-04-25T02:01:11.028Z,12.17681885
2023-04-25T02:02:42.478Z,12.15667725
2023-04-25T02:03:43.298Z,12.17681885
2023-04-25T02:04:45.079Z,12.15667725
2023-04-25T02:05:46.399Z,12.15667725
2023-04-25T02:06:47.256Z,12.11639404
2023-04-25T02:07:48.953Z,12.10632324
2023-04-25T02:08:49.746Z,12.06604004
2023-04-25T02:09:52.034Z,12.04589844
2023-04-25T02:10:52.867Z,11.99554443
2023-04-25T02:11:54.478Z,11.97540283
2023-04-25T02:12:55.305Z,11.96533203
2023-04-25T02:13:56.953Z,11.95526123
2023-04-25T02:14:58.612Z,11.90490723
2023-04-25T02:15:59.622Z,11.85455322
2023-04-25T02:17:01.766Z,11.81427002
2023-04-25T02:18:02.454Z,11.78405762
2023-04-25T02:19:04.056Z,11.75384521
2023-04-25T02:20:04.897Z,11.63299561
2023-04-25T02:21:06.652Z,11.5322876
2023-04-25T02:22:07.526Z,11.42150879
2023-04-25T02:23:08.471Z,11.36108398
2023-04-25T02:24:09.352Z,11.33087158
2023-04-25T02:25:11.370Z,11.24023438
2023-04-25T02:26:44.048Z,11.21002197
2023-04-25T02:27:45.014Z,11.15966797
2023-04-25T02:28:46.474Z,11.10931396
2023-04-25T02:29:47.957Z,11.07910156
2023-04-25T02:30:49.566Z,11.07910156
2023-04-25T02:31:50.503Z,11.07910156
2023-04-25T02:32:51.533Z,11.07910156
2023-04-25T02:33:52.536Z,11.08917236
2023-04-25T02:34:54.044Z,11.07910156
2023-04-25T02:35:55.519Z,11.04888916
2023-04-25T02:36:56.437Z,11.04888916
2023-04-25T02:37:58.132Z,11.08917236
2023-04-25T02:38:59.451Z,11.07910156
2023-04-25T02:40:01.008Z,11.08917236
2023-04-25T02:41:02.564Z,11.07910156
2023-04-25T02:42:03.448Z,11.05895996
2023-04-25T02:43:04.308Z,11.04888916
2023-04-25T02:44:05.235Z,11.10931396
2023-04-25T02:45:07.041Z,11.18988037
2023-04-25T02:46:08.627Z,11.21002197
2023-04-25T02:47:10.082Z,11.21002197
2023-04-25T02:48:12.204Z,11.15966797
2023-04-25T02:49:44.501Z,11.07910156
2023-04-25T02:50:45.984Z,11.05895996
2023-04-25T02:51:46.860Z,11.04888916
2023-04-25T02:52:47.656Z,11.01867676
2023-04-25T02:53:48.705Z,11.04888916
2023-04-25T02:54:49.912Z,11.07910156
2023-04-25T02:55:51.507Z,11.04888916
2023-04-25T02:56:53.046Z,11.05895996
2023-04-25T02:57:54.571Z,11.07910156
2023-04-25T02:58:55.524Z,11.02874756
2023-04-25T02:59:56.992Z,10.94818115
2023-04-25T03:00:58.006Z,10.90789795
2023-04-25T03:01:59.567Z,10.83740234
2023-04-25T03:03:00.712Z,10.74676514
2023-04-25T03:04:01.518Z,10.69641113
2023-04-25T03:05:03.050Z,10.64605713
2023-04-25T03:06:05.079Z,10.59570313
2023-04-25T03:07:05.959Z,10.53527832
2023-04-25T03:08:07.530Z,10.49499512
2023-04-25T03:09:08.954Z,10.50506592
2023-04-25T03:10:10.554Z,10.47485352
2023-04-25T03:11:42.519Z,10.47485352
2023-04-25T03:12:43.411Z,10.46478271
2023-04-25T03:13:44.359Z,10.38421631
2023-04-25T03:14:45.285Z,10.39428711
2023-04-25T03:15:46.946Z,10.36407471
2023-04-25T03:16:47.952Z,10.34393311
2023-04-25T03:17:49.537Z,10.35400391
2023-04-25T03:18:51.053Z,10.34393311
2023-04-25T03:19:51.996Z,10.3237915
2023-04-25T03:20:53.576Z,10.34393311
2023-04-25T03:21:54.493Z,10.3137207
2023-04-25T03:22:55.352Z,10.2532959
2023-04-25T03:23:56.199Z,10.2230835
2023-04-25T03:24:57.122Z,10.14251709
2023-04-25T03:25:59.011Z,10.09216309
2023-04-25T03:27:00.215Z,10.04180908
2023-04-25T03:28:02.576Z,9.991455078
2023-04-25T03:29:03.560Z,9.951171875
2023-04-25T03:30:04.470Z,9.961242676
2023-04-25T03:31:06.003Z,9.991455078
2023-04-25T03:32:06.882Z,10.04180908
2023-04-25T03:33:07.817Z,10.10223389
2023-04-25T03:34:08.682Z,10.09216309
2023-04-25T03:35:10.871Z,10.04180908
2023-04-25T03:36:42.959Z,10.06195068
2023-04-25T03:37:44.494Z,10.07202148
2023-04-25T03:38:47.095Z,10.09216309
2023-04-25T03:39:48.677Z,10.13244629
2023-04-25T03:40:49.554Z,10.17272949
2023-04-25T03:41:50.930Z,10.2532959
2023-04-25T03:42:51.929Z,10.3137207
2023-04-25T03:43:53.104Z,10.35400391
2023-04-25T03:44:55.065Z,10.39428711
2023-04-25T03:45:56.028Z,10.44464111
2023-04-25T03:46:57.522Z,10.50506592
2023-04-25T03:47:59.111Z,10.56549072
2023-04-25T03:49:00.575Z,10.65612793
2023-04-25T03:50:01.651Z,10.68634033
2023-04-25T03:51:03.640Z,10.71655273
2023-04-25T03:52:04.429Z,10.69641113
2023-04-25T03:53:05.305Z,10.72662354
2023-04-25T03:54:07.133Z,10.77697754
2023-04-25T03:55:08.454Z,10.75683594
2023-04-25T03:56:10.146Z,10.77697754
2023-04-25T03:57:42.037Z,10.75683594
2023-04-25T03:58:42.890Z,10.74676514
2023-04-25T03:59:44.657Z,10.75683594
2023-04-25T04:00:45.722Z,10.75683594
2023-04-25T04:01:46.736Z,10.77697754
2023-04-25T04:02:48.549Z,10.77697754
2023-04-25T04:03:49.909Z,10.79711914
2023-04-25T04:04:51.426Z,10.75683594
2023-04-25T04:05:53.231Z,10.77697754
2023-04-25T04:06:54.048Z,10.75683594
2023-04-25T04:07:55.584Z,10.75683594
2023-04-25T04:08:56.654Z,10.74676514
2023-04-25T04:09:58.592Z,10.72662354
2023-04-25T04:11:00.620Z,10.74676514
2023-04-25T04:12:01.647Z,10.77697754
2023-04-25T04:13:02.649Z,10.77697754
2023-04-25T04:14:03.529Z,10.79711914
2023-04-25T04:15:05.075Z,10.82733154
2023-04-25T04:16:06.222Z,10.82733154
2023-04-25T04:17:08.221Z,10.79711914
2023-04-25T04:18:10.143Z,10.80718994
2023-04-25T04:19:41.511Z,10.83740234
2023-04-25T04:20:43.100Z,10.87768555
2023-04-25T04:21:45.087Z,10.92803955
2023-04-25T04:22:46.071Z,10.90789795
2023-04-25T04:23:47.195Z,10.90789795
2023-04-25T04:24:49.054Z,10.89782715
2023-04-25T04:25:50.597Z,10.85754395
2023-04-25T04:26:51.533Z,10.86761475
2023-04-25T04:27:53.158Z,10.82733154
2023-04-25T04:28:54.166Z,10.82733154
2023-04-25T04:29:55.088Z,10.82733154
2023-04-25T04:30:56.600Z,10.82733154
2023-04-25T04:31:57.557Z,10.82733154
2023-04-25T04:32:58.525Z,10.80718994
2023-04-25T04:34:00.572Z,10.82733154
2023-04-25T04:35:01.562Z,10.86761475
2023-04-25T04:36:03.026Z,10.86761475
2023-04-25T04:37:03.877Z,10.86761475
2023-04-25T04:38:05.706Z,10.89782715
2023-04-25T04:39:06.615Z,10.90789795
2023-04-25T04:40:08.228Z,10.92803955
2023-04-25T04:41:10.052Z,11.00860596
2023-04-25T04:42:41.469Z,11.02874756
2023-04-25T04:43:42.508Z,11.00860596
2023-04-25T04:44:44.598Z,10.77697754
2023-04-25T04:45:46.072Z,10.61584473
2023-04-25T04:46:46.970Z,10.59570313
2023-04-25T04:47:47.877Z,10.56549072
2023-04-25T04:48:49.567Z,10.56549072
2023-04-25T04:49:51.105Z,10.59570313
2023-04-25T04:50:52.229Z,10.57556152
2023-04-25T04:51:54.054Z,10.57556152
2023-04-25T04:52:54.990Z,10.65612793
2023-04-25T04:53:55.978Z,10.69641113
2023-04-25T04:54:56.899Z,10.75683594
2023-04-25T04:55:58.665Z,10.79711914
2023-04-25T04:57:00.656Z,10.83740234
2023-04-25T04:58:01.565Z,10.87768555
2023-04-25T04:59:04.059Z,10.86761475
2023-04-25T05:00:05.035Z,10.85754395
2023-04-25T05:01:06.635Z,10.83740234
2023-04-25T05:02:07.640Z,10.83740234
2023-04-25T05:03:08.806Z,10.87768555
2023-04-25T05:04:10.228Z,10.97839355
2023-04-25T05:05:42.576Z,11.02874756
2023-04-25T05:06:43.881Z,11.02874756
2023-04-25T05:07:45.595Z,11.02874756
2023-04-25T05:08:47.071Z,11.02874756
2023-04-25T05:09:48.542Z,11.02874756
2023-04-25T05:10:49.512Z,11.04888916
2023-04-25T05:11:50.565Z,11.04888916
2023-04-25T05:12:51.510Z,11.05895996
2023-04-25T05:13:52.930Z,11.00860596
2023-04-25T05:14:54.075Z,10.93811035
2023-04-25T05:15:55.621Z,10.90789795
2023-04-25T05:16:56.639Z,10.85754395
2023-04-25T05:17:57.665Z,10.85754395
2023-04-25T05:18:59.081Z,10.85754395
2023-04-25T05:20:00.537Z,10.82733154
2023-04-25T05:21:01.492Z,10.77697754
2023-04-25T05:22:02.485Z,10.77697754
2023-04-25T05:23:04.147Z,10.82733154
2023-04-25T05:24:06.104Z,10.85754395
2023-04-25T05:25:07.541Z,10.83740234
2023-04-25T05:26:08.591Z,10.80718994
2023-04-25T05:27:40.572Z,10.77697754
2023-04-25T05:28:42.708Z,10.74676514
2023-04-25T05:29:43.971Z,10.75683594
2023-04-25T05:30:45.551Z,10.72662354
2023-04-25T05:31:46.487Z,10.65612793
2023-04-25T05:32:47.449Z,10.61584473
2023-04-25T05:33:48.869Z,10.64605713
2023-04-25T05:34:50.687Z,10.61584473
2023-04-25T05:35:52.556Z,10.57556152
2023-04-25T05:36:53.408Z,10.56549072
2023-04-25T05:37:54.482Z,10.50506592
2023-04-25T05:38:56.144Z,10.49499512
2023-04-25T05:39:58.625Z,10.49499512
2023-04-25T05:41:00.629Z,10.46478271
2023-04-25T05:42:01.518Z,10.46478271
2023-04-25T05:43:03.285Z,10.49499512
2023-04-25T05:44:04.446Z,10.49499512
2023-04-25T05:45:06.211Z,10.43457031
2023-04-25T05:46:07.310Z,10.3237915
2023-04-25T05:47:08.222Z,10.2835083
2023-04-25T05:48:41.126Z,10.2935791
2023-04-25T05:49:42.164Z,10.2230835
2023-04-25T05:50:44.565Z,10.20294189
2023-04-25T05:51:45.667Z,10.2432251
2023-04-25T05:52:47.560Z,10.20294189
2023-04-25T05:53:48.710Z,10.17272949
2023-04-25T05:54:50.162Z,10.16265869
2023-04-25T05:55:52.311Z,10.16265869
2023-04-25T05:56:53.214Z,10.2230835
2023-04-25T05:57:55.044Z,10.2633667
2023-04-25T05:58:56.568Z,10.2935791
2023-04-25T05:59:57.650Z,10.38421631
2023-04-25T06:00:59.700Z,10.46478271
2023-04-25T06:02:00.777Z,10.44464111
2023-04-25T06:03:01.878Z,10.51513672
2023-04-25T06:04:03.054Z,10.53527832
2023-04-25T06:05:03.653Z,10.53527832
2023-04-25T06:06:05.170Z,10.57556152
2023-04-25T06:07:06.112Z,10.54534912
2023-04-25T06:08:07.559Z,10.56549072
2023-04-25T06:09:09.586Z,10.56549072
2023-04-25T06:10:41.821Z,10.61584473
2023-04-25T06:11:44.043Z,10.65612793
2023-04-25T06:12:45.165Z,10.61584473
2023-04-25T06:13:46.038Z,10.61584473
2023-04-25T06:14:47.570Z,10.53527832
2023-04-25T06:15:49.044Z,10.54534912
2023-04-25T06:16:50.634Z,10.50506592
2023-04-25T06:17:51.722Z,10.46478271
2023-04-25T06:18:53.566Z,10.44464111
2023-04-25T06:19:54.459Z,10.46478271
2023-04-25T06:20:56.060Z,10.47485352
2023-04-25T06:21:57.051Z,10.47485352
2023-04-25T06:22:57.940Z,10.42449951
2023-04-25T06:23:58.904Z,10.43457031
2023-04-25T06:25:00.561Z,10.44464111
2023-04-25T06:26:01.966Z,10.36407471
2023-04-25T06:27:03.079Z,10.35400391
2023-04-25T06:28:04.087Z,10.35400391
2023-04-25T06:29:06.571Z,10.35400391
2023-04-25T06:30:07.458Z,10.36407471
2023-04-25T06:31:39.645Z,10.38421631
2023-04-25T06:32:40.622Z,10.42449951
2023-04-25T06:33:41.562Z,10.42449951
2023-04-25T06:34:43.084Z,10.49499512
2023-04-25T06:35:45.056Z,10.46478271
2023-04-25T06:36:45.881Z,10.39428711
2023-04-25T06:37:47.515Z,10.42449951
2023-04-25T06:38:49.268Z,10.44464111
2023-04-25T06:39:51.096Z,10.43457031
2023-04-25T06:40:53.063Z,10.42449951
2023-04-25T06:41:54.218Z,10.44464111
2023-04-25T06:42:55.181Z,10.44464111
2023-04-25T06:43:56.106Z,10.53527832
2023-04-25T06:44:58.094Z,10.56549072
2023-04-25T06:45:59.577Z,10.53527832
2023-04-25T06:47:00.516Z,10.53527832
2023-04-25T06:48:02.142Z,10.50506592
2023-04-25T06:49:03.590Z,10.53527832
2023-04-25T06:50:04.656Z,10.56549072
2023-04-25T06:51:06.605Z,10.62591553
2023-04-25T06:52:07.616Z,10.62591553
2023-04-25T06:53:08.963Z,10.71655273
2023-04-25T06:54:41.091Z,10.75683594
2023-04-25T06:55:42.660Z,10.79711914
2023-04-25T06:56:44.599Z,10.82733154
2023-04-25T06:57:45.491Z,10.86761475
2023-04-25T06:58:47.102Z,10.87768555
2023-04-25T06:59:48.596Z,10.89782715
2023-04-25T07:00:49.586Z,10.92803955
2023-04-25T07:01:51.006Z,10.94818115
2023-04-25T07:02:52.261Z,11.00860596
2023-04-25T07:03:53.134Z,11.05895996
2023-04-25T07:04:54.651Z,11.07910156
2023-04-25T07:05:56.384Z,11.05895996
2023-04-25T07:06:57.405Z,11.07910156
2023-04-25T07:07:59.087Z,11.08917236
2023-04-25T07:09:00.614Z,11.11938477
2023-04-25T07:10:02.069Z,11.11938477
2023-04-25T07:11:03.692Z,11.12945557
2023-04-25T07:12:04.689Z,11.18988037
2023-04-25T07:13:05.674Z,11.21002197
2023-04-25T07:14:06.630Z,11.23016357
2023-04-25T07:15:08.144Z,11.23016357
2023-04-25T07:16:40.153Z,11.23016357
2023-04-25T07:17:42.141Z,11.19995117
2023-04-25T07:18:43.671Z,11.07910156
2023-04-25T07:19:45.657Z,10.59570313
2023-04-25T07:20:46.496Z,10.38421631
2023-04-25T07:21:47.947Z,10.06195068
2023-04-25T07:22:49.034Z,9.920959473
2023-04-25T07:23:50.078Z,9.89074707
2023-04-25T07:24:52.131Z,9.860534668
2023-04-25T07:25:53.616Z,9.88067627
2023-04-25T07:26:54.486Z,9.729614258
2023-04-25T07:27:55.492Z,9.417419434
2023-04-25T07:28:57.100Z,9.316711426
2023-04-25T07:29:58.603Z,9.23614502
2023-04-25T07:30:59.992Z,9.226074219
2023-04-25T07:32:00.927Z,9.145507813
2023-04-25T07:33:01.770Z,9.155578613
2023-04-25T07:34:02.704Z,9.155578613
2023-04-25T07:35:04.679Z,9.195861816
2023-04-25T07:36:06.540Z,9.095153809
2023-04-25T07:37:08.563Z,9.195861816
2023-04-25T07:38:40.524Z,9.226074219
2023-04-25T07:39:41.534Z,9.145507813
2023-04-25T07:40:42.660Z,9.145507813
2023-04-25T07:41:44.240Z,9.014587402
2023-04-25T07:42:45.065Z,8.913879395
2023-04-25T07:43:46.075Z,8.944091797
2023-04-25T07:44:47.636Z,8.944091797
2023-04-25T07:45:48.762Z,8.984375
2023-04-25T07:46:50.508Z,8.964233398
2023-04-25T07:47:51.448Z,8.793029785
2023-04-25T07:48:53.394Z,8.782958984
2023-04-25T07:49:54.603Z,8.823242188
2023-04-25T07:50:55.527Z,8.803100586
2023-04-25T07:51:56.988Z,8.934020996
2023-04-25T07:52:57.878Z,8.984375
2023-04-25T07:53:59.600Z,9.034729004
2023-04-25T07:55:01.600Z,9.064941406
2023-04-25T07:56:03.118Z,9.044799805
2023-04-25T07:57:04.062Z,9.064941406
2023-04-25T07:58:04.964Z,9.125366211
2023-04-25T07:59:05.927Z,9.034729004
2023-04-25T08:00:07.534Z,9.075012207
2023-04-25T08:01:39.616Z,9.145507813
2023-04-25T08:02:40.618Z,9.23614502
2023-04-25T08:03:42.276Z,9.346923828
2023-04-25T08:04:43.198Z,9.417419434
2023-04-25T08:05:45.765Z,9.49798584
2023-04-25T08:06:46.634Z,9.548339844
2023-04-25T08:07:48.528Z,9.598693848
2023-04-25T08:08:50.324Z,9.669189453
2023-04-25T08:09:51.591Z,9.749755859
2023-04-25T08:10:53.576Z,9.850463867
2023-04-25T08:11:54.654Z,9.920959473
2023-04-25T08:12:55.556Z,10.01159668
2023-04-25T08:13:56.425Z,9.981384277
2023-04-25T08:14:58.081Z,9.951171875
2023-04-25T08:15:59.628Z,9.981384277
2023-04-25T08:17:00.508Z,10.07202148
2023-04-25T08:18:01.380Z,10.14251709
2023-04-25T08:19:02.967Z,10.2432251
2023-04-25T08:20:04.450Z,10.2935791
2023-04-25T08:21:06.114Z,10.36407471
2023-04-25T08:22:07.065Z,10.43457031
2023-04-25T08:23:38.947Z,10.50506592
2023-04-25T08:24:40.486Z,10.54534912
2023-04-25T08:25:41.958Z,10.59570313
2023-04-25T08:26:43.630Z,10.61584473
2023-04-25T08:27:44.649Z,10.68634033
2023-04-25T08:28:46.101Z,10.75683594
2023-04-25T08:29:48.554Z,10.80718994
2023-04-25T08:30:49.365Z,10.85754395
2023-04-25T08:31:51.056Z,10.92803955
2023-04-25T08:32:52.114Z,10.97839355
2023-04-25T08:33:53.032Z,11.02874756
2023-04-25T08:34:53.876Z,11.07910156
2023-04-25T08:35:55.468Z,11.10931396
2023-04-25T08:36:57.147Z,11.11938477
2023-04-25T08:37:58.013Z,11.18988037
2023-04-25T08:38:58.925Z,11.24023438
2023-04-25T08:40:01.138Z,11.31072998
2023-04-25T08:41:02.552Z,11.39129639
2023-04-25T08:42:03.418Z,11.41143799
2023-04-25T08:43:04.342Z,11.46179199
2023-04-25T08:44:06.102Z,11.48193359
2023-04-25T08:45:07.647Z,11.5423584
2023-04-25T08:46:40.112Z,11.48193359
2023-04-25T08:47:40.921Z,11.45172119
2023-04-25T08:48:42.573Z,11.45172119
2023-04-25T08:49:43.968Z,11.36108398
2023-04-25T08:50:46.612Z,11.30065918
2023-04-25T08:51:47.543Z,11.28051758
2023-04-25T08:52:48.946Z,11.27044678
2023-04-25T08:53:53.671Z,11.26037598
2023-04-25T08:54:51.585Z,11.24023438
2023-04-25T08:55:53.085Z,11.24023438
2023-04-25T08:56:54.057Z,11.23016357
2023-04-25T08:57:55.580Z,11.24023438
2023-04-25T08:58:56.643Z,11.26037598
2023-04-25T08:59:58.600Z,11.23016357
2023-04-25T09:01:00.088Z,11.24023438
2023-04-25T09:02:01.059Z,11.23016357
2023-04-25T09:03:02.755Z,11.23016357
2023-04-25T09:04:03.736Z,11.15966797
2023-04-25T09:05:05.561Z,11.16973877
2023-04-25T09:06:07.554Z,11.18988037
2023-04-25T09:07:39.127Z,11.16973877
2023-04-25T09:08:40.790Z,11.01867676
2023-04-25T09:09:42.578Z,10.93811035
2023-04-25T09:10:44.231Z,10.82733154
2023-04-25T09:11:46.120Z,10.67626953
2023-04-25T09:12:47.075Z,10.51513672
2023-04-25T09:13:48.061Z,10.3137207
2023-04-25T09:14:48.952Z,10.13244629
2023-04-25T09:15:51.089Z,10.06195068
2023-04-25T09:16:52.058Z,9.910888672
2023-04-25T09:17:53.112Z,9.598693848
2023-04-25T09:18:54.604Z,9.417419434
2023-04-25T09:19:56.061Z,9.155578613
2023-04-25T09:21:01.768Z,8.934020996
2023-04-25T09:21:58.687Z,8.883666992
2023-04-25T09:22:59.632Z,8.893737793
2023-04-25T09:24:00.654Z,8.964233398
2023-04-25T09:25:02.050Z,8.833312988
2023-04-25T09:26:03.543Z,8.823242188
2023-04-25T09:27:04.486Z,8.793029785
2023-04-25T09:28:05.618Z,8.85345459
2023-04-25T09:29:07.697Z,9.014587402
2023-04-25T09:30:40.088Z,8.913879395
2023-04-25T09:31:41.638Z,8.944091797
2023-04-25T09:32:42.610Z,8.974304199
2023-04-25T09:33:43.859Z,9.014587402
2023-04-25T09:34:45.579Z,9.125366211
2023-04-25T09:35:47.161Z,9.185791016
2023-04-25T09:36:48.563Z,9.266357422
2023-04-25T09:37:49.466Z,9.316711426
2023-04-25T09:38:50.552Z,9.346923828
2023-04-25T09:39:52.116Z,9.437561035
2023-04-25T09:40:53.729Z,9.477844238
2023-04-25T09:41:54.454Z,9.528198242
2023-04-25T09:42:56.094Z,9.649047852
2023-04-25T09:43:57.276Z,9.729614258
2023-04-25T09:44:58.644Z,9.779968262
2023-04-25T09:46:00.656Z,9.749755859
2023-04-25T09:47:01.388Z,9.679260254
2023-04-25T09:48:03.133Z,9.669189453
2023-04-25T09:49:03.964Z,9.709472656
2023-04-25T09:50:05.549Z,9.769897461
2023-04-25T09:51:07.519Z,9.860534668
2023-04-25T09:52:39.466Z,9.931030273
2023-04-25T09:53:41.027Z,10.04180908
2023-04-25T09:54:42.623Z,10.11230469
2023-04-25T09:55:44.632Z,10.17272949
2023-04-25T09:56:46.554Z,10.16265869
2023-04-25T09:57:47.369Z,10.13244629
2023-04-25T09:58:49.123Z,10.09216309
2023-04-25T09:59:50.087Z,10.09216309
2023-04-25T10:00:51.611Z,10.11230469
2023-04-25T10:01:53.699Z,10.13244629
2023-04-25T10:02:54.659Z,10.18280029
2023-04-25T10:03:55.554Z,10.14251709
2023-04-25T10:04:57.285Z,10.14251709
2023-04-25T10:05:58.598Z,10.06195068
2023-04-25T10:06:59.673Z,10.09216309
2023-04-25T10:08:01.566Z,10.16265869
2023-04-25T10:09:03.154Z,10.2532959
2023-04-25T10:10:05.063Z,10.2633667
2023-04-25T10:11:06.109Z,10.2432251
2023-04-25T10:12:07.555Z,10.2633667
2023-04-25T10:13:39.066Z,10.3137207
2023-04-25T10:14:40.033Z,10.2532959
2023-04-25T10:15:41.572Z,10.2532959
2023-04-25T10:16:43.292Z,10.2633667
2023-04-25T10:17:44.450Z,10.2633667
2023-04-25T10:18:46.112Z,10.2532959
2023-04-25T10:19:47.172Z,10.2633667
2023-04-25T10:20:48.597Z,10.2633667
2023-04-25T10:21:49.600Z,10.2432251
2023-04-25T10:22:50.569Z,10.2230835
2023-04-25T10:23:51.761Z,10.20294189
2023-04-25T10:24:53.026Z,10.2230835
2023-04-25T10:25:54.612Z,10.2633667
2023-04-25T10:26:56.581Z,10.2532959
2023-04-25T10:27:57.578Z,10.2835083
2023-04-25T10:28:59.096Z,10.2532959
2023-04-25T10:30:00.642Z,10.2835083
2023-04-25T10:31:02.641Z,10.2935791
2023-04-25T10:32:03.497Z,10.17272949
2023-04-25T10:33:04.437Z,10.2532959
2023-04-25T10:34:05.439Z,10.36407471
2023-04-25T10:35:07.608Z,10.49499512
2023-04-25T10:36:39.764Z,10.51513672
2023-04-25T10:37:40.956Z,10.51513672
2023-04-25T10:38:42.719Z,10.56549072
2023-04-25T10:39:44.622Z,10.56549072
2023-04-25T10:40:47.124Z,10.62591553
2023-04-25T10:41:48.115Z,10.69641113
2023-04-25T10:42:49.165Z,10.75683594
2023-04-25T10:43:50.280Z,10.80718994
2023-04-25T10:44:51.861Z,10.87768555
2023-04-25T10:45:53.701Z,10.93811035
2023-04-25T10:46:54.701Z,11.02874756
2023-04-25T10:47:55.768Z,11.08917236
2023-04-25T10:48:57.618Z,11.16973877
2023-04-25T10:49:59.089Z,11.18988037
2023-04-25T10:51:01.140Z,11.21002197
2023-04-25T10:52:02.151Z,11.21002197
2023-04-25T10:53:03.142Z,11.26037598
2023-04-25T10:54:04.119Z,11.30065918
2023-04-25T10:55:05.635Z,11.38122559
2023-04-25T10:56:09.024Z,11.49200439
2023-04-25T10:57:39.143Z,11.41143799
2023-04-25T10:58:40.682Z,11.44165039
2023-04-25T10:59:41.609Z,11.48193359
2023-04-25T11:00:53.599Z,11.5625
2023-04-25T11:01:44.715Z,11.5322876
2023-04-25T11:02:45.836Z,11.5322876
2023-04-25T11:03:46.942Z,11.5625
2023-04-25T11:04:48.858Z,11.5625
2023-04-25T11:05:57.830Z,11.5725708
2023-04-25T11:06:53.828Z,11.6027832
2023-04-25T11:07:59.852Z,11.6027832
2023-04-25T11:08:54.661Z,11.6229248
2023-04-25T11:09:56.638Z,11.6027832
2023-04-25T11:10:58.626Z,11.6229248
2023-04-25T11:12:00.224Z,11.6027832
2023-04-25T11:13:01.219Z,11.5927124
2023-04-25T11:14:03.085Z,11.5725708
2023-04-25T11:15:04.126Z,11.5725708
2023-04-25T11:16:12.399Z,11.5725708
2023-04-25T11:17:07.757Z,11.64306641
2023-04-25T11:18:40.129Z,11.67327881
2023-04-25T11:19:42.098Z,11.72363281